sensor_id;sensor_type;location;lat;lon;timestamp;P1;durP1;ratioP1;P2;durP2;ratioP2
51298;SDS011;37382;45.192;9.790;2022-10-16T04:07:32;180.93;;;102.95;;
51298;SDS011;37382;45.192;9.790;2022-10-16T04:09:59;183.35;;;103.25;;
51298;SDS011;37382;45.192;9.790;2022-10-16T04:12:28;177.48;;;104.55;;
51298;SDS011;37382;45.192;9.790;2022-10-16T04:14:55;171.98;;;102.43;;
51298;SDS011;37382;45.192;9.790;2022-10-16T04:17:22;176.48;;;101.28;;
51298;SDS011;37382;45.192;9.790;2022-10-16T04:19:50;173.52;;;103.35;;
51298;SDS011;37382;45.192;9.790;2022-10-16T04:22:17;178.38;;;105.35;;
51298;SDS011;37382;45.192;9.790;2022-10-16T04:24:45;171.52;;;102.57;;
51298;SDS011;37382;45.192;9.790;2022-10-16T04:27:12;178.57;;;104.75;;
51298;SDS011;37382;45.192;9.790;2022-10-16T04:29:39;174.45;;;102.72;;
51298;SDS011;37382;45.192;9.790;2022-10-16T04:32:08;169.90;;;102.45;;
51298;SDS011;37382;45.192;9.790;2022-10-16T04:34:36;169.80;;;103.28;;
51298;SDS011;37382;45.192;9.790;2022-10-16T04:37:05;177.15;;;104.18;;
51298;SDS011;37382;45.192;9.790;2022-10-16T04:39:33;176.07;;;101.45;;
51298;SDS011;37382;45.192;9.790;2022-10-16T04:42:00;178.77;;;102.57;;
51298;SDS011;37382;45.192;9.790;2022-10-16T04:44:27;171.82;;;100.85;;
51298;SDS011;37382;45.192;9.790;2022-10-16T04:46:54;182.25;;;105.10;;
51298;SDS011;37382;45.192;9.790;2022-10-16T04:49:22;172.57;;;103.15;;
51298;SDS011;37382;45.192;9.790;2022-10-16T04:51:50;169.38;;;101.60;;
51298;SDS011;37382;45.192;9.790;2022-10-16T04:54:17;176.43;;;102.82;;
51298;SDS011;37382;45.192;9.790;2022-10-16T04:56:45;187.80;;;102.63;;
51298;SDS011;37382;45.192;9.790;2022-10-16T04:59:17;174.70;;;99.05;;
51298;SDS011;37382;45.192;9.790;2022-10-16T05:01:46;184.52;;;102.53;;
51298;SDS011;37382;45.192;9.790;2022-10-16T05:04:13;173.93;;;101.72;;
51298;SDS011;37382;45.192;9.790;2022-10-16T05:06:42;164.70;;;100.15;;
51298;SDS011;37382;45.192;9.790;2022-10-16T05:09:09;169.98;;;99.63;;
51298;SDS011;37382;45.192;9.790;2022-10-16T05:11:37;175.10;;;100.05;;
51298;SDS011;37382;45.192;9.790;2022-10-16T05:14:04;177.90;;;101.47;;
51298;SDS011;37382;45.192;9.790;2022-10-16T05:16:33;182.95;;;99.60;;
51298;SDS011;37382;45.192;9.790;2022-10-16T05:19:00;171.00;;;100.18;;
51298;SDS011;37382;45.192;9.790;2022-10-16T05:21:48;170.75;;;99.55;;
51298;SDS011;37382;45.192;9.790;2022-10-16T05:24:16;181.68;;;100.20;;
51298;SDS011;37382;45.192;9.790;2022-10-16T05:26:44;181.10;;;101.05;;
51298;SDS011;37382;45.192;9.790;2022-10-16T05:29:11;170.32;;;98.22;;
51298;SDS011;37382;45.192;9.790;2022-10-16T05:31:39;174.30;;;98.47;;
51298;SDS011;37382;45.192;9.790;2022-10-16T05:34:06;162.80;;;98.85;;
51298;SDS011;37382;45.192;9.790;2022-10-16T05:36:34;180.88;;;100.22;;
51298;SDS011;37382;45.192;9.790;2022-10-16T05:39:01;170.60;;;97.18;;
51298;SDS011;37382;45.192;9.790;2022-10-16T05:41:28;167.80;;;101.25;;
51298;SDS011;37382;45.192;9.790;2022-10-16T05:43:56;171.73;;;99.43;;
51298;SDS011;37382;45.192;9.790;2022-10-16T05:46:23;182.60;;;99.43;;
51298;SDS011;37382;45.192;9.790;2022-10-16T05:48:51;166.93;;;96.50;;
51298;SDS011;37382;45.192;9.790;2022-10-16T05:51:20;166.98;;;97.32;;
51298;SDS011;37382;45.192;9.790;2022-10-16T05:53:47;168.55;;;96.43;;
51298;SDS011;37382;45.192;9.790;2022-10-16T05:56:15;171.25;;;94.35;;
51298;SDS011;37382;45.192;9.790;2022-10-16T05:58:43;159.38;;;95.50;;
51298;SDS011;37382;45.192;9.790;2022-10-16T06:01:13;170.43;;;96.70;;
51298;SDS011;37382;45.192;9.790;2022-10-16T06:03:45;165.57;;;96.20;;
51298;SDS011;37382;45.192;9.790;2022-10-16T06:06:14;162.23;;;95.55;;
51298;SDS011;37382;45.192;9.790;2022-10-16T06:08:44;159.88;;;94.70;;
51298;SDS011;37382;45.192;9.790;2022-10-16T06:11:16;173.80;;;98.20;;
51298;SDS011;37382;45.192;9.790;2022-10-16T06:13:56;167.07;;;95.07;;
51298;SDS011;37382;45.192;9.790;2022-10-16T06:16:25;172.43;;;95.45;;
51298;SDS011;37382;45.192;9.790;2022-10-16T06:18:53;165.48;;;95.53;;
51298;SDS011;37382;45.192;9.790;2022-10-16T06:21:24;166.95;;;94.32;;
51298;SDS011;37382;45.192;9.790;2022-10-16T06:23:53;169.80;;;95.82;;
51298;SDS011;37382;45.192;9.790;2022-10-16T06:26:24;175.43;;;96.20;;
51298;SDS011;37382;45.192;9.790;2022-10-16T06:28:54;164.50;;;94.65;;
51298;SDS011;37382;45.192;9.790;2022-10-16T06:31:23;165.52;;;96.55;;
51298;SDS011;37382;45.192;9.790;2022-10-16T06:33:54;167.55;;;96.95;;
51298;SDS011;37382;45.192;9.790;2022-10-16T06:36:23;158.23;;;90.97;;
51298;SDS011;37382;45.192;9.790;2022-10-16T06:38:52;157.25;;;92.55;;
51298;SDS011;37382;45.192;9.790;2022-10-16T06:41:20;166.95;;;92.93;;
51298;SDS011;37382;45.192;9.790;2022-10-16T06:43:49;160.63;;;90.95;;
51298;SDS011;37382;45.192;9.790;2022-10-16T06:46:17;158.20;;;95.10;;
51298;SDS011;37382;45.192;9.790;2022-10-16T06:48:47;157.13;;;94.18;;
51298;SDS011;37382;45.192;9.790;2022-10-16T06:51:18;158.15;;;94.70;;
51298;SDS011;37382;45.192;9.790;2022-10-16T06:53:51;168.05;;;97.43;;
51298;SDS011;37382;45.192;9.790;2022-10-16T06:56:36;161.43;;;92.20;;
51298;SDS011;37382;45.192;9.790;2022-10-16T06:59:04;161.85;;;94.43;;
51298;SDS011;37382;45.192;9.790;2022-10-16T07:01:32;157.30;;;94.88;;
51298;SDS011;37382;45.192;9.790;2022-10-16T07:04:00;162.52;;;95.13;;
51298;SDS011;37382;45.192;9.790;2022-10-16T07:06:30;165.18;;;95.50;;
51298;SDS011;37382;45.192;9.790;2022-10-16T07:09:00;169.68;;;94.50;;
51298;SDS011;37382;45.192;9.790;2022-10-16T07:11:30;157.90;;;94.63;;
51298;SDS011;37382;45.192;9.790;2022-10-16T07:13:57;155.20;;;93.90;;
51298;SDS011;37382;45.192;9.790;2022-10-16T07:16:26;171.10;;;96.63;;
51298;SDS011;37382;45.192;9.790;2022-10-16T07:18:55;160.20;;;92.85;;
51298;SDS011;37382;45.192;9.790;2022-10-16T07:21:31;174.30;;;94.35;;
51298;SDS011;37382;45.192;9.790;2022-10-16T07:24:04;164.75;;;91.53;;
51298;SDS011;37382;45.192;9.790;2022-10-16T07:26:34;156.55;;;91.10;;
51298;SDS011;37382;45.192;9.790;2022-10-16T07:29:03;166.30;;;94.93;;
51298;SDS011;37382;45.192;9.790;2022-10-16T07:31:31;164.45;;;96.88;;
51298;SDS011;37382;45.192;9.790;2022-10-16T07:33:59;162.35;;;93.85;;
51298;SDS011;37382;45.192;9.790;2022-10-16T07:36:27;163.43;;;94.65;;
51298;SDS011;37382;45.192;9.790;2022-10-16T07:38:55;167.13;;;94.70;;
51298;SDS011;37382;45.192;9.790;2022-10-16T07:41:27;149.45;;;91.13;;
51298;SDS011;37382;45.192;9.790;2022-10-16T07:43:55;156.88;;;89.65;;
51298;SDS011;37382;45.192;9.790;2022-10-16T07:46:27;165.13;;;91.53;;
51298;SDS011;37382;45.192;9.790;2022-10-16T07:48:55;151.95;;;88.55;;
51298;SDS011;37382;45.192;9.790;2022-10-16T07:51:24;156.73;;;90.00;;
51298;SDS011;37382;45.192;9.790;2022-10-16T07:53:52;144.77;;;87.60;;
51298;SDS011;37382;45.192;9.790;2022-10-16T07:56:20;145.10;;;87.18;;
51298;SDS011;37382;45.192;9.790;2022-10-16T07:58:49;147.25;;;84.47;;
51298;SDS011;37382;45.192;9.790;2022-10-16T08:01:17;145.05;;;85.53;;
51298;SDS011;37382;45.192;9.790;2022-10-16T08:03:47;144.98;;;84.82;;
51298;SDS011;37382;45.192;9.790;2022-10-16T08:06:16;140.65;;;81.10;;
51298;SDS011;37382;45.192;9.790;2022-10-16T08:08:50;130.05;;;76.20;;
51298;SDS011;37382;45.192;9.790;2022-10-16T08:11:18;151.23;;;82.05;;
51298;SDS011;37382;45.192;9.790;2022-10-16T08:13:46;127.07;;;74.55;;
51298;SDS011;37382;45.192;9.790;2022-10-16T08:16:14;138.30;;;82.30;;
51298;SDS011;37382;45.192;9.790;2022-10-16T08:18:41;131.52;;;78.90;;
51298;SDS011;37382;45.192;9.790;2022-10-16T08:21:15;134.38;;;81.30;;
51298;SDS011;37382;45.192;9.790;2022-10-16T08:23:47;136.25;;;80.68;;
51298;SDS011;37382;45.192;9.790;2022-10-16T08:26:24;139.30;;;81.70;;
51298;SDS011;37382;45.192;9.790;2022-10-16T08:28:53;133.45;;;77.68;;
51298;SDS011;37382;45.192;9.790;2022-10-16T08:31:22;129.75;;;76.30;;
51298;SDS011;37382;45.192;9.790;2022-10-16T08:33:49;138.63;;;75.22;;
51298;SDS011;37382;45.192;9.790;2022-10-16T08:36:18;127.13;;;73.90;;
51298;SDS011;37382;45.192;9.790;2022-10-16T08:38:49;118.65;;;74.53;;
51298;SDS011;37382;45.192;9.790;2022-10-16T08:41:23;120.22;;;74.75;;
51298;SDS011;37382;45.192;9.790;2022-10-16T08:46:55;117.97;;;70.32;;
51298;SDS011;37382;45.192;9.790;2022-10-16T08:52:39;95.68;;;61.72;;
51298;SDS011;37382;45.192;9.790;2022-10-16T08:57:55;97.88;;;58.80;;
51298;SDS011;37382;45.192;9.790;2022-10-16T09:00:23;99.30;;;60.60;;
51298;SDS011;37382;45.192;9.790;2022-10-16T09:02:56;98.22;;;57.88;;
51298;SDS011;37382;45.192;9.790;2022-10-16T09:05:36;92.82;;;59.53;;
51298;SDS011;37382;45.192;9.790;2022-10-16T09:10:56;94.68;;;58.10;;
51298;SDS011;37382;45.192;9.790;2022-10-16T09:22:10;88.28;;;54.60;;
51298;SDS011;37382;45.192;9.790;2022-10-16T09:24:41;86.70;;;56.47;;
51298;SDS011;37382;45.192;9.790;2022-10-16T09:27:12;99.43;;;59.28;;
51298;SDS011;37382;45.192;9.790;2022-10-16T09:29:41;98.00;;;57.78;;
51298;SDS011;37382;45.192;9.790;2022-10-16T09:32:10;89.75;;;57.83;;
51298;SDS011;37382;45.192;9.790;2022-10-16T09:34:52;84.97;;;57.08;;
51298;SDS011;37382;45.192;9.790;2022-10-16T09:37:23;95.90;;;55.08;;
51298;SDS011;37382;45.192;9.790;2022-10-16T09:39:53;87.10;;;53.30;;
51298;SDS011;37382;45.192;9.790;2022-10-16T09:45:00;95.75;;;56.45;;
51298;SDS011;37382;45.192;9.790;2022-10-16T09:47:29;89.97;;;54.33;;
51298;SDS011;37382;45.192;9.790;2022-10-16T09:50:02;90.50;;;55.42;;
51298;SDS011;37382;45.192;9.790;2022-10-16T09:52:33;85.00;;;54.45;;
51298;SDS011;37382;45.192;9.790;2022-10-16T09:55:02;94.47;;;59.00;;
51298;SDS011;37382;45.192;9.790;2022-10-16T09:57:54;99.22;;;54.60;;
51298;SDS011;37382;45.192;9.790;2022-10-16T10:00:23;84.72;;;53.92;;
51298;SDS011;37382;45.192;9.790;2022-10-16T10:02:52;94.40;;;57.80;;
51298;SDS011;37382;45.192;9.790;2022-10-16T10:05:26;88.85;;;57.92;;
51298;SDS011;37382;45.192;9.790;2022-10-16T10:08:05;82.55;;;52.63;;
51298;SDS011;37382;45.192;9.790;2022-10-16T10:10:41;86.32;;;52.85;;
51298;SDS011;37382;45.192;9.790;2022-10-16T10:13:19;86.03;;;55.55;;
51298;SDS011;37382;45.192;9.790;2022-10-16T10:15:48;102.53;;;59.70;;
51298;SDS011;37382;45.192;9.790;2022-10-16T10:18:19;94.47;;;58.60;;
51298;SDS011;37382;45.192;9.790;2022-10-16T10:21:02;81.78;;;51.63;;
51298;SDS011;37382;45.192;9.790;2022-10-16T10:23:33;89.35;;;58.05;;
51298;SDS011;37382;45.192;9.790;2022-10-16T10:26:11;91.57;;;58.13;;
51298;SDS011;37382;45.192;9.790;2022-10-16T10:31:45;96.13;;;60.13;;
51298;SDS011;37382;45.192;9.790;2022-10-16T10:34:39;88.28;;;56.97;;
51298;SDS011;37382;45.192;9.790;2022-10-16T10:37:21;85.95;;;54.97;;
51298;SDS011;37382;45.192;9.790;2022-10-16T10:43:10;94.43;;;56.95;;
51298;SDS011;37382;45.192;9.790;2022-10-16T10:45:48;96.32;;;55.80;;
51298;SDS011;37382;45.192;9.790;2022-10-16T10:51:38;87.72;;;55.42;;
51298;SDS011;37382;45.192;9.790;2022-10-16T10:57:07;85.28;;;54.60;;
51298;SDS011;37382;45.192;9.790;2022-10-16T11:00:00;89.00;;;54.20;;
51298;SDS011;37382;45.192;9.790;2022-10-16T11:02:51;74.53;;;51.10;;
51298;SDS011;37382;45.192;9.790;2022-10-16T11:10:58;93.05;;;53.90;;
51298;SDS011;37382;45.192;9.790;2022-10-16T11:13:37;86.25;;;54.63;;
51298;SDS011;37382;45.192;9.790;2022-10-16T11:16:14;87.22;;;55.83;;
51298;SDS011;37382;45.192;9.790;2022-10-16T11:21:39;83.13;;;52.42;;
51298;SDS011;37382;45.192;9.790;2022-10-16T11:24:23;87.78;;;57.17;;
51298;SDS011;37382;45.192;9.790;2022-10-16T11:27:07;86.43;;;53.80;;
51298;SDS011;37382;45.192;9.790;2022-10-16T11:29:39;87.10;;;55.28;;
51298;SDS011;37382;45.192;9.790;2022-10-16T11:32:30;93.28;;;58.55;;
51298;SDS011;37382;45.192;9.790;2022-10-16T11:35:21;96.30;;;56.28;;
51298;SDS011;37382;45.192;9.790;2022-10-16T11:37:57;82.43;;;53.40;;
51298;SDS011;37382;45.192;9.790;2022-10-16T11:40:29;76.47;;;50.33;;
51298;SDS011;37382;45.192;9.790;2022-10-16T11:45:45;94.78;;;57.65;;
51298;SDS011;37382;45.192;9.790;2022-10-16T11:50:51;92.35;;;56.08;;
51298;SDS011;37382;45.192;9.790;2022-10-16T11:56:00;81.78;;;53.55;;
51298;SDS011;37382;45.192;9.790;2022-10-16T12:01:27;79.75;;;49.55;;
51298;SDS011;37382;45.192;9.790;2022-10-16T12:07:14;68.97;;;48.08;;
51298;SDS011;37382;45.192;9.790;2022-10-16T12:09:46;84.13;;;55.55;;
51298;SDS011;37382;45.192;9.790;2022-10-16T12:17:53;84.78;;;53.83;;
51298;SDS011;37382;45.192;9.790;2022-10-16T12:20:26;79.70;;;51.65;;
51298;SDS011;37382;45.192;9.790;2022-10-16T12:23:01;82.60;;;55.58;;
51298;SDS011;37382;45.192;9.790;2022-10-16T12:25:37;72.43;;;50.10;;
51298;SDS011;37382;45.192;9.790;2022-10-16T12:28:20;76.60;;;50.38;;
51298;SDS011;37382;45.192;9.790;2022-10-16T12:30:53;71.97;;;48.58;;
51298;SDS011;37382;45.192;9.790;2022-10-16T12:33:30;76.25;;;50.30;;
51298;SDS011;37382;45.192;9.790;2022-10-16T12:36:02;81.20;;;52.30;;
51298;SDS011;37382;45.192;9.790;2022-10-16T12:38:48;76.55;;;51.40;;
51298;SDS011;37382;45.192;9.790;2022-10-16T12:43:53;79.28;;;50.28;;
51298;SDS011;37382;45.192;9.790;2022-10-16T12:46:24;69.32;;;46.92;;
51298;SDS011;37382;45.192;9.790;2022-10-16T12:51:42;76.75;;;48.50;;
51298;SDS011;37382;45.192;9.790;2022-10-16T12:57:08;68.43;;;42.35;;
51298;SDS011;37382;45.192;9.790;2022-10-16T13:11:16;71.25;;;43.00;;
51298;SDS011;37382;45.192;9.790;2022-10-16T13:19:39;65.95;;;42.45;;
51298;SDS011;37382;45.192;9.790;2022-10-16T13:27:50;73.20;;;41.33;;
51298;SDS011;37382;45.192;9.790;2022-10-16T13:30:31;62.75;;;38.65;;
51298;SDS011;37382;45.192;9.790;2022-10-16T13:33:27;57.30;;;37.85;;
51298;SDS011;37382;45.192;9.790;2022-10-16T13:36:00;65.80;;;39.58;;
51298;SDS011;37382;45.192;9.790;2022-10-16T13:38:37;57.88;;;38.13;;
51298;SDS011;37382;45.192;9.790;2022-10-16T13:41:06;55.45;;;39.13;;
51298;SDS011;37382;45.192;9.790;2022-10-16T13:43:43;56.60;;;36.67;;
51298;SDS011;37382;45.192;9.790;2022-10-16T13:46:19;56.42;;;38.63;;
51298;SDS011;37382;45.192;9.790;2022-10-16T13:48:59;61.42;;;38.53;;
51298;SDS011;37382;45.192;9.790;2022-10-16T13:51:30;63.22;;;34.60;;
51298;SDS011;37382;45.192;9.790;2022-10-16T13:53:59;49.25;;;31.55;;
51298;SDS011;37382;45.192;9.790;2022-10-16T13:56:27;45.20;;;28.25;;
51298;SDS011;37382;45.192;9.790;2022-10-16T13:59:00;35.08;;;25.27;;
51298;SDS011;37382;45.192;9.790;2022-10-16T14:01:33;42.67;;;27.08;;
51298;SDS011;37382;45.192;9.790;2022-10-16T14:04:04;41.67;;;23.85;;
51298;SDS011;37382;45.192;9.790;2022-10-16T14:06:33;36.45;;;23.08;;
51298;SDS011;37382;45.192;9.790;2022-10-16T14:11:37;33.67;;;23.20;;
51298;SDS011;37382;45.192;9.790;2022-10-16T14:14:12;41.80;;;25.63;;
51298;SDS011;37382;45.192;9.790;2022-10-16T14:16:41;37.08;;;25.80;;
51298;SDS011;37382;45.192;9.790;2022-10-16T14:19:26;32.05;;;23.52;;
51298;SDS011;37382;45.192;9.790;2022-10-16T14:22:14;40.53;;;22.42;;
51298;SDS011;37382;45.192;9.790;2022-10-16T14:25:23;31.50;;;20.67;;
51298;SDS011;37382;45.192;9.790;2022-10-16T14:30:49;37.38;;;20.70;;
51298;SDS011;37382;45.192;9.790;2022-10-16T14:36:01;34.17;;;21.70;;
51298;SDS011;37382;45.192;9.790;2022-10-16T14:38:32;30.92;;;22.05;;
51298;SDS011;37382;45.192;9.790;2022-10-16T14:41:00;32.33;;;23.35;;
51298;SDS011;37382;45.192;9.790;2022-10-16T14:43:31;36.95;;;23.92;;
51298;SDS011;37382;45.192;9.790;2022-10-16T14:46:04;31.85;;;22.58;;
51298;SDS011;37382;45.192;9.790;2022-10-16T14:48:42;30.45;;;21.33;;
51298;SDS011;37382;45.192;9.790;2022-10-16T14:51:15;29.83;;;22.90;;
51298;SDS011;37382;45.192;9.790;2022-10-16T14:53:44;35.80;;;23.00;;
51298;SDS011;37382;45.192;9.790;2022-10-16T14:58:44;38.70;;;25.13;;
51298;SDS011;37382;45.192;9.790;2022-10-16T15:01:12;32.97;;;22.02;;
51298;SDS011;37382;45.192;9.790;2022-10-16T15:03:39;36.97;;;24.73;;
51298;SDS011;37382;45.192;9.790;2022-10-16T15:06:11;32.45;;;22.88;;
51298;SDS011;37382;45.192;9.790;2022-10-16T15:08:39;36.47;;;21.90;;
51298;SDS011;37382;45.192;9.790;2022-10-16T15:11:13;33.42;;;21.83;;
51298;SDS011;37382;45.192;9.790;2022-10-16T15:13:43;34.97;;;22.95;;
51298;SDS011;37382;45.192;9.790;2022-10-16T15:16:12;34.25;;;23.45;;
51298;SDS011;37382;45.192;9.790;2022-10-16T15:18:42;34.50;;;23.52;;
51298;SDS011;37382;45.192;9.790;2022-10-16T15:21:16;34.40;;;22.23;;
51298;SDS011;37382;45.192;9.790;2022-10-16T15:23:51;36.15;;;22.45;;
51298;SDS011;37382;45.192;9.790;2022-10-16T15:26:18;31.73;;;21.45;;
51298;SDS011;37382;45.192;9.790;2022-10-16T15:28:46;42.33;;;22.83;;
51298;SDS011;37382;45.192;9.790;2022-10-16T15:31:14;34.53;;;20.65;;
51298;SDS011;37382;45.192;9.790;2022-10-16T15:33:41;39.10;;;21.55;;
51298;SDS011;37382;45.192;9.790;2022-10-16T15:36:09;37.97;;;23.13;;
51298;SDS011;37382;45.192;9.790;2022-10-16T15:38:36;34.47;;;22.63;;
51298;SDS011;37382;45.192;9.790;2022-10-16T15:41:03;34.90;;;22.00;;
51298;SDS011;37382;45.192;9.790;2022-10-16T15:43:31;40.72;;;22.15;;
51298;SDS011;37382;45.192;9.790;2022-10-16T15:48:28;35.85;;;21.33;;
51298;SDS011;37382;45.192;9.790;2022-10-16T15:50:56;35.75;;;22.20;;
51298;SDS011;37382;45.192;9.790;2022-10-16T15:53:24;39.03;;;23.13;;
51298;SDS011;37382;45.192;9.790;2022-10-16T15:55:52;34.83;;;22.38;;
51298;SDS011;37382;45.192;9.790;2022-10-16T15:58:19;36.00;;;22.02;;
51298;SDS011;37382;45.192;9.790;2022-10-16T16:00:55;34.88;;;22.88;;
51298;SDS011;37382;45.192;9.790;2022-10-16T16:03:23;37.88;;;22.60;;
51298;SDS011;37382;45.192;9.790;2022-10-16T16:05:51;31.33;;;22.23;;
51298;SDS011;37382;45.192;9.790;2022-10-16T16:08:19;36.35;;;21.95;;
51298;SDS011;37382;45.192;9.790;2022-10-16T16:10:57;45.17;;;24.13;;
51298;SDS011;37382;45.192;9.790;2022-10-16T16:13:26;34.60;;;23.45;;
51298;SDS011;37382;45.192;9.790;2022-10-16T16:15:54;38.03;;;24.02;;
51298;SDS011;37382;45.192;9.790;2022-10-16T16:18:21;41.88;;;22.83;;
51298;SDS011;37382;45.192;9.790;2022-10-16T16:20:50;38.05;;;24.08;;
51298;SDS011;37382;45.192;9.790;2022-10-16T16:23:19;41.15;;;24.30;;
51298;SDS011;37382;45.192;9.790;2022-10-16T16:26:01;40.60;;;24.10;;
51298;SDS011;37382;45.192;9.790;2022-10-16T16:28:31;40.35;;;26.02;;
51298;SDS011;37382;45.192;9.790;2022-10-16T16:30:59;42.92;;;26.73;;
51298;SDS011;37382;45.192;9.790;2022-10-16T16:33:26;43.90;;;26.38;;
51298;SDS011;37382;45.192;9.790;2022-10-16T16:36:01;41.50;;;27.65;;
51298;SDS011;37382;45.192;9.790;2022-10-16T16:38:31;41.03;;;27.55;;
51298;SDS011;37382;45.192;9.790;2022-10-16T16:41:10;45.65;;;27.38;;
51298;SDS011;37382;45.192;9.790;2022-10-16T16:43:39;52.03;;;29.35;;
51298;SDS011;37382;45.192;9.790;2022-10-16T16:46:07;39.88;;;28.20;;
51298;SDS011;37382;45.192;9.790;2022-10-16T16:48:35;43.42;;;28.77;;
51298;SDS011;37382;45.192;9.790;2022-10-16T16:51:06;47.67;;;30.17;;
51298;SDS011;37382;45.192;9.790;2022-10-16T16:53:36;45.72;;;29.23;;
51298;SDS011;37382;45.192;9.790;2022-10-16T16:56:03;43.33;;;27.98;;
51298;SDS011;37382;45.192;9.790;2022-10-16T16:58:32;52.22;;;28.23;;
51298;SDS011;37382;45.192;9.790;2022-10-16T17:01:01;44.70;;;28.77;;
51298;SDS011;37382;45.192;9.790;2022-10-16T17:03:50;46.58;;;27.98;;
51298;SDS011;37382;45.192;9.790;2022-10-16T17:06:20;53.65;;;30.02;;
51298;SDS011;37382;45.192;9.790;2022-10-16T17:08:49;61.47;;;34.03;;
51298;SDS011;37382;45.192;9.790;2022-10-16T17:11:18;61.33;;;36.90;;
51298;SDS011;37382;45.192;9.790;2022-10-16T17:13:51;79.90;;;37.38;;
51298;SDS011;37382;45.192;9.790;2022-10-16T17:16:27;57.22;;;33.28;;
51298;SDS011;37382;45.192;9.790;2022-10-16T17:19:00;65.53;;;36.72;;
51298;SDS011;37382;45.192;9.790;2022-10-16T17:21:36;100.43;;;55.03;;
51298;SDS011;37382;45.192;9.790;2022-10-16T17:24:04;110.30;;;66.10;;
51298;SDS011;37382;45.192;9.790;2022-10-16T17:26:32;141.50;;;81.40;;
51298;SDS011;37382;45.192;9.790;2022-10-16T17:29:01;127.97;;;67.70;;
51298;SDS011;37382;45.192;9.790;2022-10-16T17:31:35;89.80;;;51.25;;
51298;SDS011;37382;45.192;9.790;2022-10-16T17:34:04;82.45;;;48.22;;
51298;SDS011;37382;45.192;9.790;2022-10-16T17:36:34;74.90;;;45.30;;
51298;SDS011;37382;45.192;9.790;2022-10-16T17:39:06;79.90;;;46.33;;
51298;SDS011;37382;45.192;9.790;2022-10-16T17:41:35;68.68;;;43.78;;
51298;SDS011;37382;45.192;9.790;2022-10-16T17:44:03;76.43;;;42.30;;
51298;SDS011;37382;45.192;9.790;2022-10-16T17:46:31;75.07;;;42.75;;
51298;SDS011;37382;45.192;9.790;2022-10-16T17:49:06;82.70;;;47.92;;
51298;SDS011;37382;45.192;9.790;2022-10-16T17:51:35;88.13;;;50.65;;
51298;SDS011;37382;45.192;9.790;2022-10-16T17:54:03;86.45;;;49.13;;
51298;SDS011;37382;45.192;9.790;2022-10-16T17:56:31;71.40;;;43.20;;
51298;SDS011;37382;45.192;9.790;2022-10-16T17:58:59;71.25;;;40.17;;
51298;SDS011;37382;45.192;9.790;2022-10-16T18:01:28;57.92;;;37.38;;
51298;SDS011;37382;45.192;9.790;2022-10-16T18:04:05;60.90;;;38.85;;
51298;SDS011;37382;45.192;9.790;2022-10-16T18:06:35;63.92;;;37.92;;
51298;SDS011;37382;45.192;9.790;2022-10-16T18:09:04;71.95;;;39.45;;
51298;SDS011;37382;45.192;9.790;2022-10-16T18:11:33;72.82;;;39.42;;
51298;SDS011;37382;45.192;9.790;2022-10-16T18:14:02;75.93;;;42.38;;
51298;SDS011;37382;45.192;9.790;2022-10-16T18:16:30;66.30;;;40.13;;
51298;SDS011;37382;45.192;9.790;2022-10-16T18:18:58;68.43;;;36.97;;
51298;SDS011;37382;45.192;9.790;2022-10-16T18:21:26;55.33;;;37.45;;
51298;SDS011;37382;45.192;9.790;2022-10-16T18:23:54;61.58;;;37.90;;
51298;SDS011;37382;45.192;9.790;2022-10-16T18:26:24;64.85;;;37.08;;
51298;SDS011;37382;45.192;9.790;2022-10-16T18:28:53;62.95;;;38.00;;
51298;SDS011;37382;45.192;9.790;2022-10-16T18:31:22;62.22;;;37.22;;
51298;SDS011;37382;45.192;9.790;2022-10-16T18:33:52;58.28;;;37.65;;
51298;SDS011;37382;45.192;9.790;2022-10-16T18:36:22;61.47;;;37.40;;
51298;SDS011;37382;45.192;9.790;2022-10-16T18:38:51;65.10;;;38.33;;
51298;SDS011;37382;45.192;9.790;2022-10-16T18:41:19;62.58;;;36.88;;
51298;SDS011;37382;45.192;9.790;2022-10-16T18:43:47;51.75;;;36.75;;
51298;SDS011;37382;45.192;9.790;2022-10-16T18:46:16;62.00;;;36.03;;
51298;SDS011;37382;45.192;9.790;2022-10-16T18:48:47;55.58;;;36.30;;
51298;SDS011;37382;45.192;9.790;2022-10-16T18:51:22;58.13;;;35.78;;
51298;SDS011;37382;45.192;9.790;2022-10-16T18:54:11;62.65;;;38.08;;
51298;SDS011;37382;45.192;9.790;2022-10-16T18:56:39;51.90;;;36.40;;
51298;SDS011;37382;45.192;9.790;2022-10-16T18:59:08;55.55;;;35.38;;
51298;SDS011;37382;45.192;9.790;2022-10-16T19:01:37;62.95;;;38.15;;
51298;SDS011;37382;45.192;9.790;2022-10-16T19:04:07;56.63;;;37.28;;
51298;SDS011;37382;45.192;9.790;2022-10-16T19:06:38;56.33;;;36.25;;
51298;SDS011;37382;45.192;9.790;2022-10-16T19:09:09;60.70;;;38.28;;
51298;SDS011;37382;45.192;9.790;2022-10-16T19:11:37;61.35;;;37.72;;
51298;SDS011;37382;45.192;9.790;2022-10-16T19:14:08;65.10;;;39.03;;
51298;SDS011;37382;45.192;9.790;2022-10-16T19:16:37;62.53;;;36.63;;
51298;SDS011;37382;45.192;9.790;2022-10-16T19:19:06;57.92;;;36.75;;
51298;SDS011;37382;45.192;9.790;2022-10-16T19:21:36;63.05;;;36.15;;
51298;SDS011;37382;45.192;9.790;2022-10-16T19:24:10;59.95;;;36.67;;
51298;SDS011;37382;45.192;9.790;2022-10-16T19:26:40;64.40;;;37.20;;
51298;SDS011;37382;45.192;9.790;2022-10-16T19:29:09;66.13;;;37.88;;
51298;SDS011;37382;45.192;9.790;2022-10-16T19:31:37;56.22;;;36.58;;
51298;SDS011;37382;45.192;9.790;2022-10-16T19:34:05;66.72;;;38.08;;
51298;SDS011;37382;45.192;9.790;2022-10-16T19:36:34;63.08;;;38.10;;
51298;SDS011;37382;45.192;9.790;2022-10-16T19:39:13;70.53;;;37.78;;
51298;SDS011;37382;45.192;9.790;2022-10-16T19:41:44;65.00;;;38.10;;
51298;SDS011;37382;45.192;9.790;2022-10-16T19:44:14;61.95;;;38.95;;
51298;SDS011;37382;45.192;9.790;2022-10-16T19:46:43;57.78;;;36.95;;
51298;SDS011;37382;45.192;9.790;2022-10-16T19:49:17;60.58;;;36.17;;
51298;SDS011;37382;45.192;9.790;2022-10-16T19:51:48;58.53;;;37.03;;
51298;SDS011;37382;45.192;9.790;2022-10-16T19:54:16;59.67;;;35.20;;
51298;SDS011;37382;45.192;9.790;2022-10-16T19:56:45;53.47;;;34.65;;
51298;SDS011;37382;45.192;9.790;2022-10-16T19:59:13;64.57;;;34.25;;
51298;SDS011;37382;45.192;9.790;2022-10-16T20:01:43;60.40;;;35.00;;
51298;SDS011;37382;45.192;9.790;2022-10-16T20:04:12;57.83;;;35.80;;
51298;SDS011;37382;45.192;9.790;2022-10-16T20:06:40;52.42;;;36.72;;
51298;SDS011;37382;45.192;9.790;2022-10-16T20:09:08;60.50;;;36.63;;
51298;SDS011;37382;45.192;9.790;2022-10-16T20:11:36;67.93;;;38.25;;
51298;SDS011;37382;45.192;9.790;2022-10-16T20:14:04;63.58;;;37.72;;
51298;SDS011;37382;45.192;9.790;2022-10-16T20:16:33;71.78;;;38.53;;
51298;SDS011;37382;45.192;9.790;2022-10-16T20:19:01;61.60;;;36.67;;
51298;SDS011;37382;45.192;9.790;2022-10-16T20:21:33;62.17;;;38.60;;
51298;SDS011;37382;45.192;9.790;2022-10-16T20:26:31;58.63;;;37.53;;
51298;SDS011;37382;45.192;9.790;2022-10-16T20:29:00;56.38;;;36.05;;
51298;SDS011;37382;45.192;9.790;2022-10-16T20:31:29;65.80;;;37.03;;
51298;SDS011;37382;45.192;9.790;2022-10-16T20:33:59;69.47;;;36.17;;
51298;SDS011;37382;45.192;9.790;2022-10-16T20:36:29;59.40;;;37.55;;